sensor_id;sensor_type;location;lat;lon;timestamp;P1;durP1;ratioP1;P2;durP2;ratioP2
56331;SDS011;42237;53.340;6.812;2022-08-07T00:00:50;13.15;;;7.78;;
56331;SDS011;42237;53.340;6.812;2022-08-07T00:03:16;15.65;;;7.80;;
56331;SDS011;42237;53.340;6.812;2022-08-07T00:05:42;13.88;;;7.93;;
56331;SDS011;42237;53.340;6.812;2022-08-07T00:08:07;16.42;;;8.05;;
56331;SDS011;42237;53.340;6.812;2022-08-07T00:10:33;14.73;;;7.65;;
56331;SDS011;42237;53.340;6.812;2022-08-07T00:13:02;13.68;;;7.93;;
56331;SDS011;42237;53.340;6.812;2022-08-07T00:15:29;14.00;;;8.23;;
56331;SDS011;42237;53.340;6.812;2022-08-07T00:17:56;14.23;;;8.23;;
56331;SDS011;42237;53.340;6.812;2022-08-07T00:20:22;12.02;;;7.10;;
56331;SDS011;42237;53.340;6.812;2022-08-07T00:22:48;12.55;;;7.18;;
56331;SDS011;42237;53.340;6.812;2022-08-07T00:25:14;12.45;;;7.40;;
56331;SDS011;42237;53.340;6.812;2022-08-07T00:27:40;15.85;;;8.32;;
56331;SDS011;42237;53.340;6.812;2022-08-07T00:30:06;13.23;;;7.90;;
56331;SDS011;42237;53.340;6.812;2022-08-07T00:32:31;14.93;;;7.82;;
56331;SDS011;42237;53.340;6.812;2022-08-07T00:34:57;17.85;;;9.10;;
56331;SDS011;42237;53.340;6.812;2022-08-07T00:37:23;15.35;;;8.35;;
56331;SDS011;42237;53.340;6.812;2022-08-07T00:39:50;13.98;;;8.15;;
56331;SDS011;42237;53.340;6.812;2022-08-07T00:42:18;15.07;;;9.13;;
56331;SDS011;42237;53.340;6.812;2022-08-07T00:44:45;16.98;;;9.07;;
56331;SDS011;42237;53.340;6.812;2022-08-07T00:47:10;20.40;;;9.32;;
56331;SDS011;42237;53.340;6.812;2022-08-07T00:49:36;15.90;;;9.57;;
56331;SDS011;42237;53.340;6.812;2022-08-07T00:52:06;15.35;;;9.65;;
56331;SDS011;42237;53.340;6.812;2022-08-07T00:54:32;15.40;;;8.60;;
56331;SDS011;42237;53.340;6.812;2022-08-07T00:56:58;14.13;;;8.32;;
56331;SDS011;42237;53.340;6.812;2022-08-07T00:59:24;16.35;;;9.57;;
56331;SDS011;42237;53.340;6.812;2022-08-07T01:01:50;14.85;;;9.18;;
56331;SDS011;42237;53.340;6.812;2022-08-07T01:04:16;17.77;;;10.05;;
56331;SDS011;42237;53.340;6.812;2022-08-07T01:06:43;14.00;;;9.45;;
56331;SDS011;42237;53.340;6.812;2022-08-07T01:09:09;15.65;;;8.70;;
56331;SDS011;42237;53.340;6.812;2022-08-07T01:11:35;15.68;;;9.50;;
56331;SDS011;42237;53.340;6.812;2022-08-07T01:14:01;15.43;;;9.38;;
56331;SDS011;42237;53.340;6.812;2022-08-07T01:16:27;16.65;;;9.93;;
56331;SDS011;42237;53.340;6.812;2022-08-07T01:18:53;16.25;;;9.70;;
56331;SDS011;42237;53.340;6.812;2022-08-07T01:21:19;17.20;;;9.32;;
56331;SDS011;42237;53.340;6.812;2022-08-07T01:23:48;15.00;;;9.10;;
56331;SDS011;42237;53.340;6.812;2022-08-07T01:26:16;14.80;;;9.90;;
56331;SDS011;42237;53.340;6.812;2022-08-07T01:28:49;18.33;;;9.20;;
56331;SDS011;42237;53.340;6.812;2022-08-07T01:31:16;15.65;;;9.82;;
56331;SDS011;42237;53.340;6.812;2022-08-07T01:33:44;14.63;;;8.98;;
56331;SDS011;42237;53.340;6.812;2022-08-07T01:36:10;17.73;;;9.65;;
56331;SDS011;42237;53.340;6.812;2022-08-07T01:38:37;16.05;;;10.13;;
56331;SDS011;42237;53.340;6.812;2022-08-07T01:41:04;16.33;;;10.40;;
56331;SDS011;42237;53.340;6.812;2022-08-07T01:43:31;16.23;;;8.32;;
56331;SDS011;42237;53.340;6.812;2022-08-07T01:45:57;15.15;;;8.98;;
56331;SDS011;42237;53.340;6.812;2022-08-07T01:48:23;16.25;;;8.70;;
56331;SDS011;42237;53.340;6.812;2022-08-07T01:51:01;14.15;;;8.43;;
56331;SDS011;42237;53.340;6.812;2022-08-07T01:53:28;12.57;;;7.30;;
56331;SDS011;42237;53.340;6.812;2022-08-07T01:56:02;13.57;;;7.70;;
56331;SDS011;42237;53.340;6.812;2022-08-07T01:58:35;12.77;;;7.70;;
56331;SDS011;42237;53.340;6.812;2022-08-07T02:01:10;13.43;;;8.00;;
56331;SDS011;42237;53.340;6.812;2022-08-07T02:03:40;13.93;;;8.60;;
56331;SDS011;42237;53.340;6.812;2022-08-07T02:06:11;13.13;;;8.20;;
56331;SDS011;42237;53.340;6.812;2022-08-07T02:08:39;16.00;;;8.48;;
56331;SDS011;42237;53.340;6.812;2022-08-07T02:11:07;15.57;;;8.63;;
56331;SDS011;42237;53.340;6.812;2022-08-07T02:13:35;17.00;;;9.07;;
56331;SDS011;42237;53.340;6.812;2022-08-07T02:16:02;16.60;;;8.88;;
56331;SDS011;42237;53.340;6.812;2022-08-07T02:18:30;15.98;;;9.48;;
56331;SDS011;42237;53.340;6.812;2022-08-07T02:20:59;15.00;;;8.60;;
56331;SDS011;42237;53.340;6.812;2022-08-07T02:23:27;14.65;;;8.57;;
56331;SDS011;42237;53.340;6.812;2022-08-07T02:25:57;17.23;;;9.60;;
56331;SDS011;42237;53.340;6.812;2022-08-07T02:28:26;17.75;;;10.00;;
56331;SDS011;42237;53.340;6.812;2022-08-07T02:30:53;14.25;;;9.05;;
56331;SDS011;42237;53.340;6.812;2022-08-07T02:33:21;15.60;;;9.15;;
56331;SDS011;42237;53.340;6.812;2022-08-07T02:35:49;14.85;;;8.52;;
56331;SDS011;42237;53.340;6.812;2022-08-07T02:38:16;15.13;;;9.30;;
56331;SDS011;42237;53.340;6.812;2022-08-07T02:40:43;17.00;;;9.27;;
56331;SDS011;42237;53.340;6.812;2022-08-07T02:43:10;18.95;;;9.85;;
56331;SDS011;42237;53.340;6.812;2022-08-07T02:45:37;15.25;;;8.23;;
56331;SDS011;42237;53.340;6.812;2022-08-07T02:48:06;15.98;;;8.43;;
56331;SDS011;42237;53.340;6.812;2022-08-07T02:50:35;16.15;;;8.93;;
56331;SDS011;42237;53.340;6.812;2022-08-07T02:53:06;21.10;;;10.02;;
56331;SDS011;42237;53.340;6.812;2022-08-07T02:55:36;20.85;;;9.27;;
56331;SDS011;42237;53.340;6.812;2022-08-07T02:58:11;16.30;;;9.55;;
56331;SDS011;42237;53.340;6.812;2022-08-07T03:00:39;16.63;;;9.55;;
56331;SDS011;42237;53.340;6.812;2022-08-07T03:03:06;15.25;;;9.07;;
56331;SDS011;42237;53.340;6.812;2022-08-07T03:05:35;19.45;;;9.48;;
56331;SDS011;42237;53.340;6.812;2022-08-07T03:08:04;14.45;;;8.85;;
56331;SDS011;42237;53.340;6.812;2022-08-07T03:10:34;17.02;;;9.50;;
56331;SDS011;42237;53.340;6.812;2022-08-07T03:13:00;16.67;;;8.95;;
56331;SDS011;42237;53.340;6.812;2022-08-07T03:15:27;16.05;;;9.40;;
56331;SDS011;42237;53.340;6.812;2022-08-07T03:17:53;17.50;;;9.35;;
56331;SDS011;42237;53.340;6.812;2022-08-07T03:20:20;16.08;;;9.48;;
56331;SDS011;42237;53.340;6.812;2022-08-07T03:22:47;16.60;;;9.65;;
56331;SDS011;42237;53.340;6.812;2022-08-07T03:25:15;16.45;;;10.18;;
56331;SDS011;42237;53.340;6.812;2022-08-07T03:27:42;17.42;;;9.45;;
56331;SDS011;42237;53.340;6.812;2022-08-07T03:30:10;20.00;;;10.40;;
56331;SDS011;42237;53.340;6.812;2022-08-07T03:32:37;17.30;;;9.85;;
56331;SDS011;42237;53.340;6.812;2022-08-07T03:35:05;16.77;;;9.65;;
56331;SDS011;42237;53.340;6.812;2022-08-07T03:37:42;17.90;;;10.00;;
56331;SDS011;42237;53.340;6.812;2022-08-07T03:40:09;18.73;;;9.73;;
56331;SDS011;42237;53.340;6.812;2022-08-07T03:42:36;20.13;;;9.98;;
56331;SDS011;42237;53.340;6.812;2022-08-07T03:45:03;17.42;;;9.57;;
56331;SDS011;42237;53.340;6.812;2022-08-07T03:47:29;18.73;;;9.50;;
56331;SDS011;42237;53.340;6.812;2022-08-07T03:49:58;17.02;;;9.02;;
56331;SDS011;42237;53.340;6.812;2022-08-07T03:52:25;17.60;;;9.45;;
56331;SDS011;42237;53.340;6.812;2022-08-07T03:54:55;17.40;;;9.90;;
56331;SDS011;42237;53.340;6.812;2022-08-07T03:57:23;18.08;;;9.32;;
56331;SDS011;42237;53.340;6.812;2022-08-07T03:59:51;16.95;;;9.20;;
56331;SDS011;42237;53.340;6.812;2022-08-07T04:02:18;17.35;;;9.25;;
56331;SDS011;42237;53.340;6.812;2022-08-07T04:04:43;20.48;;;10.05;;
56331;SDS011;42237;53.340;6.812;2022-08-07T04:07:14;17.52;;;9.15;;
56331;SDS011;42237;53.340;6.812;2022-08-07T04:09:41;14.88;;;8.38;;
56331;SDS011;42237;53.340;6.812;2022-08-07T04:12:08;16.85;;;9.25;;
56331;SDS011;42237;53.340;6.812;2022-08-07T04:14:34;16.50;;;9.13;;
56331;SDS011;42237;53.340;6.812;2022-08-07T04:17:00;18.50;;;8.43;;
56331;SDS011;42237;53.340;6.812;2022-08-07T04:19:27;13.95;;;8.57;;
56331;SDS011;42237;53.340;6.812;2022-08-07T04:21:53;15.43;;;8.75;;
56331;SDS011;42237;53.340;6.812;2022-08-07T04:24:19;25.15;;;9.40;;
56331;SDS011;42237;53.340;6.812;2022-08-07T04:26:46;12.15;;;7.45;;
56331;SDS011;42237;53.340;6.812;2022-08-07T04:29:11;14.88;;;8.43;;
56331;SDS011;42237;53.340;6.812;2022-08-07T04:31:37;14.48;;;7.97;;
56331;SDS011;42237;53.340;6.812;2022-08-07T04:34:04;21.30;;;8.52;;
56331;SDS011;42237;53.340;6.812;2022-08-07T04:36:30;14.35;;;8.25;;
56331;SDS011;42237;53.340;6.812;2022-08-07T04:38:57;15.60;;;8.18;;
56331;SDS011;42237;53.340;6.812;2022-08-07T04:41:23;15.20;;;9.35;;
56331;SDS011;42237;53.340;6.812;2022-08-07T04:43:48;15.55;;;7.50;;
56331;SDS011;42237;53.340;6.812;2022-08-07T04:51:48;15.52;;;8.32;;
56331;SDS011;42237;53.340;6.812;2022-08-07T04:54:51;13.17;;;8.07;;
56331;SDS011;42237;53.340;6.812;2022-08-07T04:57:48;13.15;;;7.97;;
56331;SDS011;42237;53.340;6.812;2022-08-07T05:00:27;17.85;;;8.43;;
56331;SDS011;42237;53.340;6.812;2022-08-07T05:03:46;16.63;;;7.60;;
56331;SDS011;42237;53.340;6.812;2022-08-07T05:08:35;12.95;;;7.97;;
56331;SDS011;42237;53.340;6.812;2022-08-07T05:11:12;16.77;;;8.48;;
56331;SDS011;42237;53.340;6.812;2022-08-07T05:13:46;16.55;;;8.10;;
56331;SDS011;42237;53.340;6.812;2022-08-07T05:16:18;15.00;;;7.85;;
56331;SDS011;42237;53.340;6.812;2022-08-07T05:19:01;17.58;;;8.52;;
56331;SDS011;42237;53.340;6.812;2022-08-07T05:21:31;15.18;;;8.85;;
56331;SDS011;42237;53.340;6.812;2022-08-07T05:24:03;13.23;;;8.40;;
56331;SDS011;42237;53.340;6.812;2022-08-07T05:26:34;14.77;;;8.23;;
56331;SDS011;42237;53.340;6.812;2022-08-07T05:29:02;15.45;;;8.05;;
56331;SDS011;42237;53.340;6.812;2022-08-07T05:31:31;18.98;;;8.27;;
56331;SDS011;42237;53.340;6.812;2022-08-07T05:33:59;13.30;;;8.07;;
56331;SDS011;42237;53.340;6.812;2022-08-07T05:36:26;14.07;;;7.55;;
56331;SDS011;42237;53.340;6.812;2022-08-07T05:38:53;16.08;;;7.70;;
56331;SDS011;42237;53.340;6.812;2022-08-07T05:41:21;13.60;;;7.15;;
56331;SDS011;42237;53.340;6.812;2022-08-07T05:43:48;16.60;;;8.40;;
56331;SDS011;42237;53.340;6.812;2022-08-07T05:46:20;14.27;;;8.30;;
56331;SDS011;42237;53.340;6.812;2022-08-07T05:48:47;12.88;;;6.80;;
56331;SDS011;42237;53.340;6.812;2022-08-07T05:51:14;14.82;;;8.05;;
56331;SDS011;42237;53.340;6.812;2022-08-07T05:53:41;13.48;;;7.80;;
56331;SDS011;42237;53.340;6.812;2022-08-07T05:56:09;14.25;;;7.82;;
56331;SDS011;42237;53.340;6.812;2022-08-07T05:58:37;12.15;;;6.70;;
56331;SDS011;42237;53.340;6.812;2022-08-07T06:01:05;12.05;;;7.20;;
56331;SDS011;42237;53.340;6.812;2022-08-07T06:03:32;10.80;;;7.00;;
56331;SDS011;42237;53.340;6.812;2022-08-07T06:05:59;14.23;;;6.88;;
56331;SDS011;42237;53.340;6.812;2022-08-07T06:08:26;12.25;;;7.30;;
56331;SDS011;42237;53.340;6.812;2022-08-07T06:10:52;13.77;;;7.35;;
56331;SDS011;42237;53.340;6.812;2022-08-07T06:13:18;15.35;;;7.20;;
56331;SDS011;42237;53.340;6.812;2022-08-07T06:15:44;13.13;;;7.47;;
56331;SDS011;42237;53.340;6.812;2022-08-07T06:18:13;13.23;;;7.07;;
56331;SDS011;42237;53.340;6.812;2022-08-07T06:20:40;14.32;;;6.63;;
56331;SDS011;42237;53.340;6.812;2022-08-07T06:23:07;14.50;;;8.20;;
56331;SDS011;42237;53.340;6.812;2022-08-07T06:25:34;13.05;;;7.47;;
56331;SDS011;42237;53.340;6.812;2022-08-07T06:28:04;13.40;;;7.75;;
56331;SDS011;42237;53.340;6.812;2022-08-07T06:30:32;11.63;;;6.20;;
56331;SDS011;42237;53.340;6.812;2022-08-07T06:32:59;15.32;;;7.10;;
56331;SDS011;42237;53.340;6.812;2022-08-07T06:35:25;13.90;;;7.03;;
56331;SDS011;42237;53.340;6.812;2022-08-07T06:37:50;12.90;;;7.45;;
56331;SDS011;42237;53.340;6.812;2022-08-07T06:40:16;12.52;;;7.68;;
56331;SDS011;42237;53.340;6.812;2022-08-07T06:42:42;12.80;;;6.72;;
56331;SDS011;42237;53.340;6.812;2022-08-07T06:45:14;12.80;;;7.72;;
56331;SDS011;42237;53.340;6.812;2022-08-07T06:47:41;11.05;;;7.20;;
56331;SDS011;42237;53.340;6.812;2022-08-07T06:50:08;11.38;;;6.85;;
56331;SDS011;42237;53.340;6.812;2022-08-07T06:52:35;12.23;;;7.47;;
56331;SDS011;42237;53.340;6.812;2022-08-07T06:55:04;11.75;;;7.13;;
56331;SDS011;42237;53.340;6.812;2022-08-07T06:57:33;11.70;;;7.30;;
56331;SDS011;42237;53.340;6.812;2022-08-07T07:00:01;13.50;;;7.18;;
56331;SDS011;42237;53.340;6.812;2022-08-07T07:02:27;14.00;;;7.40;;
56331;SDS011;42237;53.340;6.812;2022-08-07T07:04:53;12.02;;;6.60;;
56331;SDS011;42237;53.340;6.812;2022-08-07T07:07:19;14.48;;;6.82;;
56331;SDS011;42237;53.340;6.812;2022-08-07T07:09:48;13.23;;;7.20;;
56331;SDS011;42237;53.340;6.812;2022-08-07T07:14:52;10.73;;;6.57;;
56331;SDS011;42237;53.340;6.812;2022-08-07T07:17:32;10.85;;;5.97;;
56331;SDS011;42237;53.340;6.812;2022-08-07T07:20:05;11.93;;;6.18;;
56331;SDS011;42237;53.340;6.812;2022-08-07T07:22:34;8.52;;;5.72;;
56331;SDS011;42237;53.340;6.812;2022-08-07T07:25:00;12.60;;;5.60;;
56331;SDS011;42237;53.340;6.812;2022-08-07T07:27:28;9.40;;;5.18;;
56331;SDS011;42237;53.340;6.812;2022-08-07T07:29:57;11.45;;;5.50;;
56331;SDS011;42237;53.340;6.812;2022-08-07T07:32:26;11.90;;;6.10;;
56331;SDS011;42237;53.340;6.812;2022-08-07T07:34:56;11.77;;;6.25;;
56331;SDS011;42237;53.340;6.812;2022-08-07T07:37:24;12.52;;;6.82;;
56331;SDS011;42237;53.340;6.812;2022-08-07T07:39:54;10.15;;;5.57;;
56331;SDS011;42237;53.340;6.812;2022-08-07T07:42:24;8.98;;;5.43;;
56331;SDS011;42237;53.340;6.812;2022-08-07T07:44:50;10.50;;;5.97;;
56331;SDS011;42237;53.340;6.812;2022-08-07T07:47:17;11.55;;;5.13;;
56331;SDS011;42237;53.340;6.812;2022-08-07T07:49:45;11.52;;;6.05;;
56331;SDS011;42237;53.340;6.812;2022-08-07T07:52:15;9.98;;;6.28;;
56331;SDS011;42237;53.340;6.812;2022-08-07T07:54:42;12.07;;;5.97;;
56331;SDS011;42237;53.340;6.812;2022-08-07T07:57:10;9.80;;;5.57;;
56331;SDS011;42237;53.340;6.812;2022-08-07T07:59:38;8.07;;;5.00;;
56331;SDS011;42237;53.340;6.812;2022-08-07T08:02:05;8.57;;;5.45;;
56331;SDS011;42237;53.340;6.812;2022-08-07T08:04:33;7.95;;;5.25;;
56331;SDS011;42237;53.340;6.812;2022-08-07T08:07:01;11.65;;;5.72;;
56331;SDS011;42237;53.340;6.812;2022-08-07T08:09:27;9.15;;;4.68;;
56331;SDS011;42237;53.340;6.812;2022-08-07T08:11:56;8.90;;;4.40;;
56331;SDS011;42237;53.340;6.812;2022-08-07T08:14:23;7.85;;;3.90;;
56331;SDS011;42237;53.340;6.812;2022-08-07T08:16:50;8.18;;;5.00;;
56331;SDS011;42237;53.340;6.812;2022-08-07T08:19:17;8.00;;;4.68;;
56331;SDS011;42237;53.340;6.812;2022-08-07T08:21:51;7.80;;;4.57;;
56331;SDS011;42237;53.340;6.812;2022-08-07T08:24:41;8.57;;;4.57;;
56331;SDS011;42237;53.340;6.812;2022-08-07T08:27:27;6.90;;;4.35;;
56331;SDS011;42237;53.340;6.812;2022-08-07T08:30:00;6.40;;;4.22;;
56331;SDS011;42237;53.340;6.812;2022-08-07T08:32:33;7.35;;;4.03;;
56331;SDS011;42237;53.340;6.812;2022-08-07T08:35:03;7.68;;;4.45;;
56331;SDS011;42237;53.340;6.812;2022-08-07T08:37:31;8.30;;;4.65;;
56331;SDS011;42237;53.340;6.812;2022-08-07T08:39:59;7.93;;;4.25;;
56331;SDS011;42237;53.340;6.812;2022-08-07T08:42:31;13.93;;;4.32;;
56331;SDS011;42237;53.340;6.812;2022-08-07T08:47:43;10.07;;;4.40;;
56331;SDS011;42237;53.340;6.812;2022-08-07T08:50:34;8.75;;;4.20;;
56331;SDS011;42237;53.340;6.812;2022-08-07T08:55:39;8.55;;;4.63;;
56331;SDS011;42237;53.340;6.812;2022-08-07T08:58:16;10.25;;;4.68;;
56331;SDS011;42237;53.340;6.812;2022-08-07T09:00:55;5.72;;;3.92;;
56331;SDS011;42237;53.340;6.812;2022-08-07T09:03:29;9.82;;;4.68;;
56331;SDS011;42237;53.340;6.812;2022-08-07T09:06:16;8.23;;;4.63;;
56331;SDS011;42237;53.340;6.812;2022-08-07T09:09:07;8.52;;;4.95;;
56331;SDS011;42237;53.340;6.812;2022-08-07T09:14:39;14.25;;;4.55;;
56331;SDS011;42237;53.340;6.812;2022-08-07T09:17:36;9.30;;;4.85;;
56331;SDS011;42237;53.340;6.812;2022-08-07T09:20:23;9.82;;;4.30;;
56331;SDS011;42237;53.340;6.812;2022-08-07T09:22:59;7.30;;;4.85;;
56331;SDS011;42237;53.340;6.812;2022-08-07T09:25:56;6.88;;;4.50;;
56331;SDS011;42237;53.340;6.812;2022-08-07T09:28:38;8.27;;;4.72;;
56331;SDS011;42237;53.340;6.812;2022-08-07T09:31:07;7.25;;;4.80;;
56331;SDS011;42237;53.340;6.812;2022-08-07T09:53:02;7.68;;;4.30;;
56331;SDS011;42237;53.340;6.812;2022-08-07T10:01:00;6.07;;;3.78;;
56331;SDS011;42237;53.340;6.812;2022-08-07T10:09:17;6.10;;;3.72;;
56331;SDS011;42237;53.340;6.812;2022-08-07T10:12:16;5.57;;;3.85;;
56331;SDS011;42237;53.340;6.812;2022-08-07T10:44:54;5.85;;;3.92;;
56331;SDS011;42237;53.340;6.812;2022-08-07T10:47:32;7.13;;;4.30;;
56331;SDS011;42237;53.340;6.812;2022-08-07T10:50:10;6.70;;;4.05;;
56331;SDS011;42237;53.340;6.812;2022-08-07T10:58:02;7.22;;;3.80;;
56331;SDS011;42237;53.340;6.812;2022-08-07T11:00:51;7.18;;;3.67;;
56331;SDS011;42237;53.340;6.812;2022-08-07T11:03:31;5.70;;;3.75;;
56331;SDS011;42237;53.340;6.812;2022-08-07T11:06:07;5.72;;;2.85;;
56331;SDS011;42237;53.340;6.812;2022-08-07T11:11:32;5.18;;;3.10;;
56331;SDS011;42237;53.340;6.812;2022-08-07T11:14:06;6.00;;;2.97;;
56331;SDS011;42237;53.340;6.812;2022-08-07T11:28:05;4.68;;;3.30;;
56331;SDS011;42237;53.340;6.812;2022-08-07T11:33:53;7.47;;;3.58;;
56331;SDS011;42237;53.340;6.812;2022-08-07T11:39:05;4.55;;;2.63;;
56331;SDS011;42237;53.340;6.812;2022-08-07T11:41:55;5.60;;;3.25;;
56331;SDS011;42237;53.340;6.812;2022-08-07T11:44:35;6.43;;;3.28;;
56331;SDS011;42237;53.340;6.812;2022-08-07T11:57:50;8.07;;;3.92;;
56331;SDS011;42237;53.340;6.812;2022-08-07T12:00:25;6.78;;;3.50;;
56331;SDS011;42237;53.340;6.812;2022-08-07T12:06:01;5.15;;;2.90;;
56331;SDS011;42237;53.340;6.812;2022-08-07T12:08:46;6.07;;;3.53;;
56331;SDS011;42237;53.340;6.812;2022-08-07T12:11:30;6.57;;;3.13;;
56331;SDS011;42237;53.340;6.812;2022-08-07T12:14:10;5.88;;;3.38;;
56331;SDS011;42237;53.340;6.812;2022-08-07T12:16:50;6.15;;;3.60;;
56331;SDS011;42237;53.340;6.812;2022-08-07T12:19:27;6.00;;;3.75;;
56331;SDS011;42237;53.340;6.812;2022-08-07T12:22:09;5.00;;;3.05;;
56331;SDS011;42237;53.340;6.812;2022-08-07T12:27:49;5.93;;;3.60;;
56331;SDS011;42237;53.340;6.812;2022-08-07T12:30:19;6.50;;;4.10;;
56331;SDS011;42237;53.340;6.812;2022-08-07T12:32:56;5.25;;;3.30;;
56331;SDS011;42237;53.340;6.812;2022-08-07T12:35:25;5.45;;;3.33;;
56331;SDS011;42237;53.340;6.812;2022-08-07T12:37:55;6.50;;;3.53;;
56331;SDS011;42237;53.340;6.812;2022-08-07T12:40:28;6.40;;;3.47;;
56331;SDS011;42237;53.340;6.812;2022-08-07T12:42:56;5.45;;;3.47;;
56331;SDS011;42237;53.340;6.812;2022-08-07T12:45:25;6.55;;;3.85;;
56331;SDS011;42237;53.340;6.812;2022-08-07T12:50:52;7.15;;;3.70;;
56331;SDS011;42237;53.340;6.812;2022-08-07T12:53:32;6.05;;;4.28;;
56331;SDS011;42237;53.340;6.812;2022-08-07T12:56:28;5.70;;;3.47;;
56331;SDS011;42237;53.340;6.812;2022-08-07T12:58:57;7.63;;;4.03;;
56331;SDS011;42237;53.340;6.812;2022-08-07T13:03:57;6.97;;;3.35;;
56331;SDS011;42237;53.340;6.812;2022-08-07T13:15:15;7.60;;;3.35;;
56331;SDS011;42237;53.340;6.812;2022-08-07T13:20:40;10.25;;;4.32;;
56331;SDS011;42237;53.340;6.812;2022-08-07T13:23:14;5.53;;;2.83;;
56331;SDS011;42237;53.340;6.812;2022-08-07T13:25:47;5.65;;;3.60;;
56331;SDS011;42237;53.340;6.812;2022-08-07T13:28:20;6.80;;;3.35;;
56331;SDS011;42237;53.340;6.812;2022-08-07T13:34:02;7.03;;;3.78;;
56331;SDS011;42237;53.340;6.812;2022-08-07T13:36:48;7.43;;;3.63;;
56331;SDS011;42237;53.340;6.812;2022-08-07T13:42:03;6.57;;;3.03;;
56331;SDS011;42237;53.340;6.812;2022-08-07T13:44:36;6.18;;;3.60;;
56331;SDS011;42237;53.340;6.812;2022-08-07T13:47:04;6.10;;;3.25;;
56331;SDS011;42237;53.340;6.812;2022-08-07T13:49:34;7.28;;;3.08;;
56331;SDS011;42237;53.340;6.812;2022-08-07T13:52:05;5.53;;;3.30;;
56331;SDS011;42237;53.340;6.812;2022-08-07T13:54:32;5.40;;;3.35;;
56331;SDS011;42237;53.340;6.812;2022-08-07T13:57:00;5.05;;;2.67;;
56331;SDS011;42237;53.340;6.812;2022-08-07T13:59:33;4.53;;;3.28;;
56331;SDS011;42237;53.340;6.812;2022-08-07T14:04:36;5.40;;;3.10;;
56331;SDS011;42237;53.340;6.812;2022-08-07T14:07:16;4.10;;;2.90;;
56331;SDS011;42237;53.340;6.812;2022-08-07T14:09:45;5.25;;;2.67;;
56331;SDS011;42237;53.340;6.812;2022-08-07T14:18:20;7.65;;;3.08;;
56331;SDS011;42237;53.340;6.812;2022-08-07T14:20:48;6.63;;;2.90;;
56331;SDS011;42237;53.340;6.812;2022-08-07T14:23:18;4.57;;;3.08;;
56331;SDS011;42237;53.340;6.812;2022-08-07T14:26:04;4.28;;;2.72;;
56331;SDS011;42237;53.340;6.812;2022-08-07T14:28:35;4.40;;;2.88;;
56331;SDS011;42237;53.340;6.812;2022-08-07T14:31:04;3.40;;;2.45;;
56331;SDS011;42237;53.340;6.812;2022-08-07T14:33:31;6.55;;;2.75;;
56331;SDS011;42237;53.340;6.812;2022-08-07T14:36:01;4.63;;;2.55;;
56331;SDS011;42237;53.340;6.812;2022-08-07T14:38:29;6.65;;;2.90;;
56331;SDS011;42237;53.340;6.812;2022-08-07T14:41:00;6.03;;;2.78;;
56331;SDS011;42237;53.340;6.812;2022-08-07T14:43:37;4.75;;;2.20;;
56331;SDS011;42237;53.340;6.812;2022-08-07T14:46:04;4.00;;;1.92;;
56331;SDS011;42237;53.340;6.812;2022-08-07T14:48:33;3.22;;;2.15;;
56331;SDS011;42237;53.340;6.812;2022-08-07T14:51:10;4.50;;;2.22;;
56331;SDS011;42237;53.340;6.812;2022-08-07T14:53:42;7.07;;;2.95;;
56331;SDS011;42237;53.340;6.812;2022-08-07T14:56:09;5.50;;;2.40;;
56331;SDS011;42237;53.340;6.812;2022-08-07T14:58:36;7.38;;;2.92;;
56331;SDS011;42237;53.340;6.812;2022-08-07T15:01:05;7.15;;;2.80;;
56331;SDS011;42237;53.340;6.812;2022-08-07T15:03:33;5.53;;;2.97;;
56331;SDS011;42237;53.340;6.812;2022-08-07T15:06:01;6.45;;;3.10;;
56331;SDS011;42237;53.340;6.812;2022-08-07T15:08:28;10.85;;;3.53;;
56331;SDS011;42237;53.340;6.812;2022-08-07T15:11:00;6.28;;;3.50;;
56331;SDS011;42237;53.340;6.812;2022-08-07T15:13:38;8.90;;;3.70;;
56331;SDS011;42237;53.340;6.812;2022-08-07T15:16:14;10.05;;;3.88;;
56331;SDS011;42237;53.340;6.812;2022-08-07T15:18:42;6.80;;;3.38;;
56331;SDS011;42237;53.340;6.812;2022-08-07T15:21:11;8.55;;;3.83;;
56331;SDS011;42237;53.340;6.812;2022-08-07T15:23:44;9.27;;;4.25;;
56331;SDS011;42237;53.340;6.812;2022-08-07T15:26:13;7.55;;;4.03;;
56331;SDS011;42237;53.340;6.812;2022-08-07T15:28:46;6.82;;;3.55;;
56331;SDS011;42237;53.340;6.812;2022-08-07T15:31:14;7.63;;;3.10;;
56331;SDS011;42237;53.340;6.812;2022-08-07T15:33:41;8.52;;;3.67;;
56331;SDS011;42237;53.340;6.812;2022-08-07T15:36:07;8.93;;;3.35;;
56331;SDS011;42237;53.340;6.812;2022-08-07T15:38:37;10.30;;;3.85;;
56331;SDS011;42237;53.340;6.812;2022-08-07T15:41:11;9.38;;;3.67;;
56331;SDS011;42237;53.340;6.812;2022-08-07T15:43:41;6.82;;;3.15;;
56331;SDS011;42237;53.340;6.812;2022-08-07T15:46:17;13.65;;;4.25;;
56331;SDS011;42237;53.340;6.812;2022-08-07T15:48:45;7.78;;;3.42;;
56331;SDS011;42237;53.340;6.812;2022-08-07T15:51:13;6.65;;;3.50;;
56331;SDS011;42237;53.340;6.812;2022-08-07T15:53:49;5.97;;;3.03;;
56331;SDS011;42237;53.340;6.812;2022-08-07T15:56:20;6.20;;;3.22;;
56331;SDS011;42237;53.340;6.812;2022-08-07T15:58:58;6.00;;;3.00;;
56331;SDS011;42237;53.340;6.812;2022-08-07T16:01:33;8.52;;;3.05;;
56331;SDS011;42237;53.340;6.812;2022-08-07T16:04:05;12.65;;;3.58;;
56331;SDS011;42237;53.340;6.812;2022-08-07T16:06:47;6.88;;;3.70;;
56331;SDS011;42237;53.340;6.812;2022-08-07T16:11:43;11.32;;;3.88;;
56331;SDS011;42237;53.340;6.812;2022-08-07T16:51:44;10.43;;;5.15;;
56331;SDS011;42237;53.340;6.812;2022-08-07T16:54:52;13.98;;;4.85;;
56331;SDS011;42237;53.340;6.812;2022-08-07T16:57:32;8.73;;;4.35;;
56331;SDS011;42237;53.340;6.812;2022-08-07T17:00:13;7.85;;;4.55;;
56331;SDS011;42237;53.340;6.812;2022-08-07T17:02:50;10.38;;;4.03;;
56331;SDS011;42237;53.340;6.812;2022-08-07T17:07:53;8.30;;;3.65;;
56331;SDS011;42237;53.340;6.812;2022-08-07T17:10:23;6.82;;;3.78;;
56331;SDS011;42237;53.340;6.812;2022-08-07T17:16:00;7.38;;;3.80;;
56331;SDS011;42237;53.340;6.812;2022-08-07T17:21:02;6.93;;;3.67;;
56331;SDS011;42237;53.340;6.812;2022-08-07T17:29:11;5.88;;;3.20;;
56331;SDS011;42237;53.340;6.812;2022-08-07T17:31:46;4.50;;;2.97;;
56331;SDS011;42237;53.340;6.812;2022-08-07T17:34:27;10.65;;;3.20;;
56331;SDS011;42237;53.340;6.812;2022-08-07T17:37:03;8.10;;;3.03;;
56331;SDS011;42237;53.340;6.812;2022-08-07T17:39:43;6.45;;;3.28;;
56331;SDS011;42237;53.340;6.812;2022-08-07T17:45:00;4.63;;;2.53;;
56331;SDS011;42237;53.340;6.812;2022-08-07T17:47:43;5.15;;;2.58;;
56331;SDS011;42237;53.340;6.812;2022-08-07T17:53:26;6.22;;;2.70;;
56331;SDS011;42237;53.340;6.812;2022-08-07T17:56:01;5.25;;;2.47;;
56331;SDS011;42237;53.340;6.812;2022-08-07T17:58:32;4.40;;;2.60;;
56331;SDS011;42237;53.340;6.812;2022-08-07T18:01:18;4.55;;;2.95;;
56331;SDS011;42237;53.340;6.812;2022-08-07T18:04:13;5.15;;;2.85;;
56331;SDS011;42237;53.340;6.812;2022-08-07T18:07:20;7.00;;;2.70;;
56331;SDS011;42237;53.340;6.812;2022-08-07T18:09:58;5.82;;;2.00;;
56331;SDS011;42237;53.340;6.812;2022-08-07T18:12:38;9.40;;;2.65;;
56331;SDS011;42237;53.340;6.812;2022-08-07T18:15:31;7.82;;;2.28;;
56331;SDS011;42237;53.340;6.812;2022-08-07T18:18:21;4.95;;;2.30;;
56331;SDS011;42237;53.340;6.812;2022-08-07T18:20:58;4.60;;;2.08;;
56331;SDS011;42237;53.340;6.812;2022-08-07T18:23:30;4.68;;;2.00;;
56331;SDS011;42237;53.340;6.812;2022-08-07T18:26:22;5.50;;;2.10;;
56331;SDS011;42237;53.340;6.812;2022-08-07T18:29:05;3.83;;;1.80;;
56331;SDS011;42237;53.340;6.812;2022-08-07T18:31:40;5.32;;;1.80;;
56331;SDS011;42237;53.340;6.812;2022-08-07T18:37:45;14.38;;;2.45;;
56331;SDS011;42237;53.340;6.812;2022-08-07T18:43:27;4.65;;;2.20;;
56331;SDS011;42237;53.340;6.812;2022-08-07T18:46:22;6.70;;;2.15;;